Share

Oconto, NE (68860)

South of Town (KNEBROKE3) Elev 2523 ft | 41.38 °N, 99.64 °W | Change Station

Current weather conditions updated 4 seconds ago

Overcast
Overcast
65.6 °F
Feels Like 65.6 °F
N
7.0
Wind Variable Wind from ENE
Gusts 29.0 mph
Sunrise 6:53 AM
Sunset 8:22 PM
Moon Waning Gibbous

Today is forecast to be Cooler than yesterday. Afternoon showers and thunderstorms.

Pressure 29.98 in
Visibility 10.0 miles
Clouds Overcast 3900 ft
Dew Point 48 °F
Humidity 54%
Rainfall 0.00 in
Snow Depth Not available.
UV 3 out of 16
Pollen 10.80 out of 12
Air Quality Not available.
Flu Activity Sporadic
METAR KBBW 191953Z AUTO 07011KT 10SM OVC039 18/08 A3000 RMK AO2 SLP150 T01830078

More Conditions Fewer Conditions

Pressure 29.98 in
Visibility 10.0 miles
Clouds Overcast 3900 ft
Dew Point 48 °F
Humidity 54%
Rainfall 0.00 in
Snow Depth Not available.
UV 3 out of 16
Pollen 10.80 out of 12
Air Quality Not available.
Flu Activity Sporadic
METAR KBBW 191953Z AUTO 07011KT 10SM OVC039 18/08 A3000 RMK AO2 SLP150 T01830078

More Conditions Fewer Conditions

10-Day Weather Forecast

Almanac

Astronomy

Apr. 19, 2014 Rise Set
Actual Time 6:53 AM CDT 8:22 PM CDT
Civil Twilight 6:24 AM CDT 8:51 PM CDT
Nautical Twilight 5:49 AM CDT 9:26 PM CDT
Astronomical Twilight 5:12 AM CDT 10:03 PM CDT
Moon 12:10 AM CDT 10:12 AM CDT
Length of Visible Light 14h 27m
Length of Day
13h 29m
Tomorrow will be 2m 33s longer.
Waning Gibbous, 77% of the Moon is Illuminated
Today
Waning Gibbous
Apr 22
Last Quarter
Apr 29
New
May 6
First Quarter
May 14
Full

Today's Extremes

State Highs State Lows

Community

  • Skirting the Horizon
    Skirting the Horizon
  • Piriapolis
    Piriapolis
  • A Glorious Morning
    A Glorious Morning
  • Tender Rays Of Hope
    Tender Rays Of Hope
  • Bleeding Hearts
    Bleeding Hearts

WunderPhotos

Upload Photos

1,702,889 photos uploaded!

WunderBlogs® & News

Nearby

Snow Depth

Station Depth Elevation
No new snow has been reported.

Coastal Water Temperatures

Place Temperature
No Stations Reporting

Earthquake Activity

City Distance Mag. Time & Date
No recent earthquake activity has been reported nearby.
Minimum magnitude displayed is 2.5.

Nearby Weather Stations

Station Location Temp. Dew Point Humidity Wind Precip. Elev Updated Type
South of Town, Broken Bow, NE 65.6 °F 48 °F 54% ENE  at  7.0 mph 0.00 in / hr 2523 ft 3:36 PM CDT Normal
Ansley, NE 67.6 °F 51 °F 55% East  at  2.0 mph 0.00 in / hr 2320 ft 3:30 PM CDT Normal
MesoWest LEXNG1 , Lexington, NE 62 °F - - North  at  - 0.00 in / hr 2411 ft 2:00 PM CDT MADIS

Show More Stations Show Fewer Stations

What do you think?

We're not finished. Please let us know what you like, what you don't like, and what you are still missing.